createdAt,value
2023-02-14T00:01:32.106Z,21.97
2023-02-14T00:04:02.107Z,21.37
2023-02-14T00:06:35.621Z,24.50
2023-02-14T00:09:06.166Z,23.83
2023-02-14T00:11:36.632Z,20.40
2023-02-14T00:14:19.663Z,23.60
2023-02-14T00:16:49.923Z,24.80
2023-02-14T00:19:22.555Z,22.97
2023-02-14T00:21:55.370Z,20.90
2023-02-14T00:24:27.994Z,23.20
2023-02-14T00:26:58.427Z,25.53
2023-02-14T00:29:31.137Z,25.10
2023-02-14T00:32:01.448Z,20.03
2023-02-14T00:34:33.410Z,19.43
2023-02-14T00:37:06.454Z,23.00
2023-02-14T00:39:36.386Z,22.40
2023-02-14T00:42:09.457Z,23.00
2023-02-14T00:44:39.456Z,17.70
2023-02-14T00:47:09.886Z,22.30
2023-02-14T00:49:39.936Z,22.60
2023-02-14T00:52:12.557Z,24.07
2023-02-14T00:54:42.519Z,25.40
2023-02-14T00:57:12.507Z,23.23
2023-02-14T00:59:42.447Z,22.70
2023-02-14T01:02:12.454Z,22.43
2023-02-14T01:04:42.432Z,24.53
2023-02-14T01:07:15.022Z,23.87
2023-02-14T01:09:45.348Z,23.00
2023-02-14T01:12:15.310Z,22.90
2023-02-14T01:14:45.725Z,22.77
2023-02-14T01:17:15.713Z,21.70
2023-02-14T01:19:45.775Z,22.90
2023-02-14T01:22:18.450Z,20.30
2023-02-14T01:24:48.674Z,22.20
2023-02-14T01:27:18.648Z,20.87
2023-02-14T01:29:50.060Z,20.93
2023-02-14T01:32:22.189Z,22.00
2023-02-14T01:34:53.663Z,22.03
2023-02-14T01:37:26.453Z,20.60
2023-02-14T01:39:56.696Z,24.60
2023-02-14T01:42:26.696Z,24.53
2023-02-14T01:45:04.267Z,24.60
2023-02-14T01:47:41.628Z,22.87
2023-02-14T01:50:17.412Z,24.83
2023-02-14T01:52:53.709Z,25.30
2023-02-14T01:55:31.164Z,22.23
2023-02-14T01:58:07.616Z,23.07
2023-02-14T02:00:52.169Z,24.97
2023-02-14T02:03:24.648Z,22.60
2023-02-14T02:06:06.224Z,24.20
2023-02-14T02:08:45.862Z,24.17
2023-02-14T02:11:15.955Z,25.50
2023-02-14T02:13:45.914Z,27.10
2023-02-14T02:16:53.744Z,25.70
2023-02-14T02:20:28.683Z,23.77
2023-02-14T02:23:53.617Z,22.87
2023-02-14T02:27:01.727Z,23.60
2023-02-14T02:30:22.494Z,21.17
2023-02-14T02:33:44.388Z,23.20
2023-02-14T02:36:43.791Z,24.63
2023-02-14T02:39:32.825Z,24.00
2023-02-14T02:42:19.195Z,21.23
2023-02-14T02:45:04.623Z,23.00
2023-02-14T02:47:41.718Z,26.07
2023-02-14T02:50:38.534Z,24.53
2023-02-14T02:53:23.810Z,23.43
2023-02-14T02:56:14.577Z,25.77
2023-02-14T02:58:52.084Z,22.90
2023-02-14T03:01:27.300Z,23.13
2023-02-14T03:04:17.937Z,23.30
2023-02-14T03:06:48.419Z,23.27
2023-02-14T03:09:59.849Z,22.70
2023-02-14T03:13:34.921Z,20.97
2023-02-14T03:16:36.732Z,19.83
2023-02-14T03:20:02.441Z,23.20
2023-02-14T03:22:51.590Z,20.90
2023-02-14T03:25:43.235Z,23.93
2023-02-14T03:28:22.722Z,21.80
2023-02-14T03:31:05.045Z,22.10
2023-02-14T03:33:46.361Z,20.20
2023-02-14T03:36:23.765Z,22.90
2023-02-14T03:39:02.786Z,22.53
2023-02-14T03:41:45.365Z,24.07
2023-02-14T03:44:22.537Z,21.50
2023-02-14T03:46:59.045Z,19.53
2023-02-14T03:49:36.291Z,19.80
2023-02-14T03:52:10.288Z,26.57
2023-02-14T03:54:40.949Z,23.33
2023-02-14T03:57:22.620Z,27.53
2023-02-14T03:59:53.547Z,24.97
2023-02-14T04:02:30.758Z,25.30
2023-02-14T04:05:04.372Z,24.33
2023-02-14T04:07:34.341Z,24.80
2023-02-14T04:10:04.308Z,24.03
2023-02-14T04:12:38.188Z,23.60
2023-02-14T04:15:10.402Z,22.70
2023-02-14T04:18:05.086Z,19.97
2023-02-14T04:20:35.000Z,24.30
2023-02-14T04:23:04.946Z,22.83
2023-02-14T04:25:34.915Z,21.90
2023-02-14T04:28:07.999Z,21.03
2023-02-14T04:30:37.956Z,23.33
2023-02-14T04:33:08.325Z,22.43
2023-02-14T04:35:38.354Z,23.67
2023-02-14T04:38:09.016Z,24.17
2023-02-14T04:40:39.035Z,23.63
2023-02-14T04:43:11.580Z,21.97
2023-02-14T04:45:41.545Z,25.17
2023-02-14T04:48:11.564Z,22.60
2023-02-14T04:50:41.694Z,25.17
2023-02-14T04:53:11.673Z,22.83
2023-02-14T04:55:41.681Z,23.67
2023-02-14T04:58:14.189Z,22.70
2023-02-14T05:00:44.235Z,21.03
2023-02-14T05:03:14.285Z,22.70
2023-02-14T05:05:44.207Z,25.00
2023-02-14T05:08:14.465Z,23.17
2023-02-14T05:10:45.220Z,21.67
2023-02-14T05:13:18.160Z,19.47
2023-02-14T05:15:48.626Z,19.57
2023-02-14T05:18:18.571Z,19.67
2023-02-14T05:20:48.546Z,21.43
2023-02-14T05:23:18.656Z,22.13
2023-02-14T05:25:51.786Z,21.97
2023-02-14T05:28:24.373Z,21.60
2023-02-14T05:30:56.919Z,25.17
2023-02-14T05:33:27.466Z,19.37
2023-02-14T05:35:57.420Z,22.10
2023-02-14T05:38:27.366Z,22.20
2023-02-14T05:40:57.928Z,21.27
2023-02-14T05:43:30.868Z,19.70
2023-02-14T05:46:01.353Z,24.57
2023-02-14T05:48:31.376Z,23.57
2023-02-14T05:51:07.386Z,25.90
2023-02-14T05:53:38.390Z,22.40
2023-02-14T05:56:09.429Z,21.93
2023-02-14T05:58:41.972Z,24.77
2023-02-14T06:01:11.900Z,23.40
2023-02-14T06:03:41.836Z,21.70
2023-02-14T06:06:11.796Z,25.80
2023-02-14T06:08:41.807Z,23.23
2023-02-14T06:11:11.792Z,23.73
2023-02-14T06:13:44.355Z,21.30
2023-02-14T06:16:14.334Z,28.57
2023-02-14T06:18:44.322Z,22.33
2023-02-14T06:21:14.314Z,22.17
2023-02-14T06:23:44.246Z,23.33
2023-02-14T06:26:14.190Z,25.90
2023-02-14T06:28:46.751Z,29.13
2023-02-14T06:31:20.958Z,23.50
2023-02-14T06:33:51.030Z,23.07
2023-02-14T06:36:21.914Z,24.93
2023-02-14T06:38:52.677Z,23.47
2023-02-14T06:41:22.729Z,23.30
2023-02-14T06:43:55.379Z,21.77
2023-02-14T06:46:25.544Z,21.23
2023-02-14T06:48:55.592Z,23.03
2023-02-14T06:51:25.562Z,23.57
2023-02-14T06:53:55.488Z,25.37
2023-02-14T06:56:25.533Z,22.87
2023-02-14T06:58:58.083Z,22.27
2023-02-14T07:01:28.168Z,23.60
2023-02-14T07:03:58.211Z,24.83
2023-02-14T07:06:28.547Z,24.37
2023-02-14T07:08:58.578Z,24.47
2023-02-14T07:11:28.730Z,24.20
2023-02-14T07:14:01.312Z,22.53
2023-02-14T07:16:31.387Z,24.17
2023-02-14T07:19:01.293Z,24.07
2023-02-14T07:21:31.302Z,23.40
2023-02-14T07:24:01.317Z,21.03
2023-02-14T07:26:31.299Z,21.00
2023-02-14T07:29:03.812Z,25.57
2023-02-14T07:31:33.901Z,25.13
2023-02-14T07:34:04.063Z,23.80
2023-02-14T07:36:33.983Z,22.37
2023-02-14T07:39:03.885Z,21.87
2023-02-14T07:41:33.865Z,25.10
2023-02-14T07:44:06.539Z,26.90
2023-02-14T07:46:36.509Z,23.30
2023-02-14T07:49:06.684Z,26.07
2023-02-14T07:51:36.755Z,25.07
2023-02-14T07:54:07.091Z,24.53
2023-02-14T07:56:37.368Z,28.67
2023-02-14T07:59:09.939Z,28.03
2023-02-14T08:01:40.002Z,27.40
2023-02-14T08:04:10.097Z,25.07
2023-02-14T08:06:40.034Z,27.27
2023-02-14T08:09:10.251Z,26.03
2023-02-14T08:12:01.792Z,23.30
2023-02-14T08:14:34.343Z,24.63
2023-02-14T08:17:04.539Z,27.30
2023-02-14T08:19:34.615Z,22.77
2023-02-14T08:22:04.757Z,25.33
2023-02-14T08:24:35.496Z,25.97
2023-02-14T08:27:05.774Z,24.97
2023-02-14T08:29:38.516Z,23.90
2023-02-14T08:32:08.773Z,26.33
2023-02-14T08:34:38.959Z,25.10
2023-02-14T08:37:08.921Z,19.83
2023-02-14T08:39:38.844Z,28.90
2023-02-14T08:42:09.239Z,24.87
2023-02-14T08:44:41.735Z,24.83
2023-02-14T08:47:11.758Z,26.60
2023-02-14T08:49:41.883Z,28.40
2023-02-14T08:52:12.475Z,28.53
2023-02-14T08:54:42.572Z,26.67
2023-02-14T08:57:12.929Z,25.27
2023-02-14T08:59:45.934Z,25.43
2023-02-14T09:02:16.838Z,26.27
2023-02-14T09:04:46.794Z,25.63
2023-02-14T09:07:17.398Z,27.00
2023-02-14T09:09:47.416Z,22.50
2023-02-14T09:12:17.495Z,24.60
2023-02-14T09:14:50.035Z,27.57
2023-02-14T09:17:21.046Z,25.23
2023-02-14T09:19:51.030Z,24.90
2023-02-14T09:22:23.053Z,24.67
2023-02-14T09:24:53.084Z,26.67
2023-02-14T09:27:23.070Z,25.20
2023-02-14T09:29:55.931Z,28.50
2023-02-14T09:32:26.600Z,25.00
2023-02-14T09:34:56.744Z,26.50
2023-02-14T09:37:39.333Z,26.17
2023-02-14T09:40:11.498Z,23.93
2023-02-14T09:42:58.420Z,22.17
2023-02-14T09:45:36.008Z,20.93
2023-02-14T09:48:13.494Z,24.03
2023-02-14T09:50:50.041Z,21.80
2023-02-14T09:53:28.182Z,25.77
2023-02-14T09:56:12.912Z,19.50
2023-02-14T09:58:55.968Z,20.93
2023-02-14T10:01:35.683Z,22.60
2023-02-14T10:04:23.854Z,22.97
2023-02-14T10:07:00.068Z,22.60
2023-02-14T10:10:05.014Z,19.80
2023-02-14T10:12:42.765Z,20.73
2023-02-14T10:15:21.937Z,21.70
2023-02-14T10:18:00.861Z,19.93
2023-02-14T10:20:35.028Z,17.27
2023-02-14T10:23:14.534Z,21.27
2023-02-14T10:25:55.765Z,20.00
2023-02-14T10:28:34.360Z,17.73
2023-02-14T10:31:24.144Z,18.10
2023-02-14T10:34:04.231Z,14.70
2023-02-14T10:37:03.411Z,16.30
2023-02-14T10:40:08.470Z,16.53
2023-02-14T10:42:53.326Z,16.57
2023-02-14T10:45:34.664Z,16.00
2023-02-14T10:48:19.352Z,14.37
2023-02-14T10:51:03.646Z,14.10
2023-02-14T10:53:50.433Z,18.87
2023-02-14T10:56:27.009Z,15.27
2023-02-14T10:59:00.486Z,15.93
2023-02-14T11:01:31.992Z,16.63
2023-02-14T11:04:08.747Z,14.53
2023-02-14T11:06:41.411Z,15.83
2023-02-14T11:09:13.674Z,16.97
2023-02-14T11:11:51.253Z,18.67
2023-02-14T11:14:32.414Z,16.33
2023-02-14T11:17:22.771Z,18.30
2023-02-14T11:20:02.510Z,17.10
2023-02-14T11:22:37.314Z,18.17
2023-02-14T11:25:10.338Z,16.90
2023-02-14T11:27:40.799Z,18.50
2023-02-14T11:30:25.074Z,16.70
2023-02-14T11:32:56.397Z,18.17
2023-02-14T11:35:34.543Z,15.80
2023-02-14T11:38:24.597Z,16.73
2023-02-14T11:41:00.209Z,17.67
2023-02-14T11:43:36.596Z,16.13
2023-02-14T11:46:51.068Z,16.83
2023-02-14T11:49:33.323Z,18.17
2023-02-14T11:52:12.468Z,18.33
2023-02-14T11:54:48.393Z,15.53
2023-02-14T11:57:28.804Z,16.63
2023-02-14T12:00:01.863Z,17.50
2023-02-14T12:02:46.597Z,16.53
2023-02-14T12:05:23.866Z,17.60
2023-02-14T12:07:57.045Z,14.83
2023-02-14T12:10:32.401Z,14.10
2023-02-14T12:13:06.188Z,15.70
2023-02-14T12:15:40.910Z,14.87
2023-02-14T12:18:51.578Z,15.20
2023-02-14T12:21:46.953Z,14.30
2023-02-14T12:24:29.017Z,17.13
2023-02-14T12:27:17.299Z,16.60
2023-02-14T12:29:54.029Z,15.97
2023-02-14T12:32:28.308Z,16.67
2023-02-14T12:35:06.257Z,17.27
2023-02-14T12:38:04.772Z,14.93
2023-02-14T12:40:51.909Z,16.00
2023-02-14T12:43:50.870Z,15.20
2023-02-14T12:47:05.740Z,16.23
2023-02-14T12:50:17.222Z,17.60
2023-02-14T12:53:22.970Z,16.27
2023-02-14T12:56:06.607Z,18.10
2023-02-14T12:58:57.434Z,16.10
2023-02-14T13:02:22.870Z,13.40
2023-02-14T13:05:06.402Z,14.27
2023-02-14T13:08:03.371Z,15.23
2023-02-14T13:10:52.679Z,16.83
2023-02-14T13:13:39.894Z,16.67
2023-02-14T13:16:25.467Z,16.70
2023-02-14T13:19:05.432Z,16.43
2023-02-14T13:21:41.269Z,14.57
2023-02-14T13:24:22.513Z,17.43
2023-02-14T13:26:59.262Z,15.50
2023-02-14T13:29:39.684Z,15.40
2023-02-14T13:32:18.339Z,14.40
2023-02-14T13:34:51.754Z,15.53
2023-02-14T13:37:27.510Z,16.07
2023-02-14T13:40:02.477Z,14.40
2023-02-14T13:43:00.131Z,15.40
2023-02-14T13:45:58.334Z,15.40
2023-02-14T13:48:32.237Z,12.07
2023-02-14T13:51:04.756Z,15.40
2023-02-14T13:53:44.140Z,18.40
2023-02-14T13:56:37.660Z,16.07
2023-02-14T13:59:09.185Z,18.00
2023-02-14T14:01:48.063Z,17.27
2023-02-14T14:04:40.307Z,16.80
2023-02-14T14:07:30.155Z,16.10
2023-02-14T14:10:09.001Z,18.30
2023-02-14T14:12:48.004Z,18.07
2023-02-14T14:15:27.315Z,17.27
2023-02-14T14:18:34.564Z,19.07
2023-02-14T14:21:19.286Z,17.80
2023-02-14T14:24:20.271Z,17.20
2023-02-14T14:26:53.277Z,16.63
2023-02-14T14:29:28.488Z,19.10
2023-02-14T14:31:59.079Z,20.10
2023-02-14T14:34:31.146Z,18.30
2023-02-14T14:37:10.848Z,18.50
2023-02-14T14:39:41.055Z,18.67
2023-02-14T14:42:17.588Z,19.30
2023-02-14T14:44:52.906Z,18.03
2023-02-14T14:47:27.162Z,18.70
2023-02-14T14:50:07.427Z,17.77
2023-02-14T14:52:45.693Z,19.50
2023-02-14T14:55:23.876Z,17.43
2023-02-14T14:57:57.623Z,19.13
2023-02-14T15:00:33.422Z,17.77
2023-02-14T15:03:09.415Z,20.30
2023-02-14T15:05:42.096Z,20.37
2023-02-14T15:08:25.570Z,19.03
2023-02-14T15:11:02.542Z,18.70
2023-02-14T15:13:49.647Z,18.87
2023-02-14T15:16:27.786Z,19.43
2023-02-14T15:19:03.597Z,18.50
2023-02-14T15:21:34.764Z,19.23
2023-02-14T15:24:08.603Z,18.13
2023-02-14T15:26:39.212Z,19.30
2023-02-14T15:29:10.309Z,18.03
2023-02-14T15:31:44.001Z,17.27
2023-02-14T15:34:16.320Z,18.70
2023-02-14T15:36:49.097Z,18.30
2023-02-14T15:39:25.487Z,19.40
2023-02-14T15:41:58.204Z,18.50
2023-02-14T15:44:29.801Z,19.60
2023-02-14T15:47:05.611Z,18.30
2023-02-14T15:49:41.280Z,18.27
2023-02-14T15:52:16.863Z,18.37
2023-02-14T15:54:51.037Z,18.37
2023-02-14T15:57:29.702Z,17.17
2023-02-14T15:59:59.985Z,16.20
2023-02-14T16:02:38.002Z,19.63
2023-02-14T16:05:18.453Z,19.00
2023-02-14T16:08:03.561Z,20.40
2023-02-14T16:10:38.584Z,19.63
2023-02-14T16:13:21.358Z,18.40
2023-02-14T16:16:02.133Z,17.80
2023-02-14T16:18:40.036Z,18.53
2023-02-14T16:21:17.095Z,18.00
2023-02-14T16:23:49.117Z,20.07
2023-02-14T16:26:21.761Z,18.30
2023-02-14T16:28:51.720Z,18.57
2023-02-14T16:31:22.334Z,19.17
2023-02-14T16:33:52.488Z,19.60
2023-02-14T16:36:28.807Z,18.00
2023-02-14T16:39:00.088Z,20.70
2023-02-14T16:41:35.872Z,20.00
2023-02-14T16:44:06.988Z,19.40
2023-02-14T16:46:39.100Z,18.30
2023-02-14T16:49:10.563Z,21.77
2023-02-14T16:51:42.723Z,23.80
2023-02-14T16:54:20.555Z,22.73
2023-02-14T16:56:59.646Z,20.83
2023-02-14T16:59:30.016Z,17.63
2023-02-14T17:02:02.282Z,19.63
2023-02-14T17:04:32.362Z,18.40
2023-02-14T17:07:06.849Z,19.73
2023-02-14T17:09:44.268Z,20.17
2023-02-14T17:12:23.570Z,20.87
2023-02-14T17:15:01.368Z,17.83
2023-02-14T17:17:32.752Z,21.60
2023-02-14T17:20:03.930Z,20.57
2023-02-14T17:22:34.537Z,22.07
2023-02-14T17:25:05.409Z,22.57
2023-02-14T17:27:38.636Z,25.60
2023-02-14T17:30:10.978Z,21.23
2023-02-14T17:32:41.019Z,19.60
2023-02-14T17:35:12.114Z,21.73
2023-02-14T17:37:42.105Z,20.67
2023-02-14T17:40:14.620Z,22.83
2023-02-14T17:42:47.343Z,18.37
2023-02-14T17:45:17.336Z,20.87
2023-02-14T17:47:47.486Z,20.80
2023-02-14T17:50:18.554Z,21.53
2023-02-14T17:52:48.477Z,23.90
2023-02-14T17:55:18.832Z,20.00
2023-02-14T17:57:52.561Z,20.90
2023-02-14T18:00:26.538Z,20.40
2023-02-14T18:02:56.548Z,22.27
2023-02-14T18:05:26.607Z,20.90
2023-02-14T18:07:56.536Z,21.53
2023-02-14T18:10:26.895Z,23.30
2023-02-14T18:12:59.497Z,23.00
2023-02-14T18:15:29.665Z,23.07
2023-02-14T18:17:59.618Z,21.50
2023-02-14T18:20:29.562Z,21.77
2023-02-14T18:22:59.486Z,23.60
2023-02-14T18:25:29.426Z,22.30
2023-02-14T18:28:02.035Z,30.10
2023-02-14T18:30:32.227Z,21.60
2023-02-14T18:33:02.146Z,23.70
2023-02-14T18:35:32.132Z,24.03
2023-02-14T18:38:02.103Z,24.83
2023-02-14T18:40:32.098Z,23.70
2023-02-14T18:43:05.119Z,24.17
2023-02-14T18:45:39.836Z,27.80
2023-02-14T18:48:09.941Z,22.90
2023-02-14T18:50:40.008Z,22.20
2023-02-14T18:53:09.982Z,22.17
2023-02-14T18:55:40.929Z,23.30
2023-02-14T18:58:13.691Z,25.13
2023-02-14T19:00:43.674Z,22.50
2023-02-14T19:03:13.631Z,22.03
2023-02-14T19:05:43.619Z,21.53
2023-02-14T19:08:13.587Z,23.10
2023-02-14T19:10:43.566Z,20.77
2023-02-14T19:13:16.083Z,24.13
2023-02-14T19:15:47.611Z,22.93
2023-02-14T19:18:17.712Z,24.17
2023-02-14T19:20:48.439Z,22.20
2023-02-14T19:23:21.388Z,22.60
2023-02-14T19:25:51.355Z,25.33
2023-02-14T19:28:24.356Z,23.60
2023-02-14T19:30:54.356Z,23.80
2023-02-14T19:33:24.436Z,23.93
2023-02-14T19:36:03.455Z,26.50
2023-02-14T19:38:33.519Z,24.87
2023-02-14T19:41:03.555Z,23.00
2023-02-14T19:43:36.156Z,23.63
2023-02-14T19:46:07.561Z,22.17
2023-02-14T19:48:37.636Z,23.50
2023-02-14T19:51:08.170Z,28.47
2023-02-14T19:53:38.469Z,25.60
2023-02-14T19:56:08.641Z,26.00
2023-02-14T19:58:43.753Z,26.30
2023-02-14T20:01:26.605Z,26.67
2023-02-14T20:03:57.301Z,29.57
2023-02-14T20:06:29.554Z,27.40
2023-02-14T20:09:00.415Z,25.27
2023-02-14T20:11:35.672Z,24.63
2023-02-14T20:14:09.686Z,24.07
2023-02-14T20:16:40.783Z,22.70
2023-02-14T20:19:16.284Z,27.53
2023-02-14T20:21:48.156Z,26.37
2023-02-14T20:24:21.246Z,25.57
2023-02-14T20:26:52.840Z,34.60
2023-02-14T20:29:27.357Z,30.67
2023-02-14T20:32:03.657Z,28.60
2023-02-14T20:34:33.962Z,31.00
2023-02-14T20:37:04.109Z,28.07
2023-02-14T20:39:37.263Z,30.50
2023-02-14T20:42:10.000Z,29.60
2023-02-14T20:44:42.846Z,26.73
2023-02-14T20:47:13.092Z,30.90
2023-02-14T20:49:44.780Z,33.23
2023-02-14T20:52:18.005Z,29.20
2023-02-14T20:54:48.018Z,31.77
2023-02-14T20:57:18.001Z,29.57
2023-02-14T20:59:50.660Z,25.53
2023-02-14T21:02:20.657Z,27.63
2023-02-14T21:04:50.585Z,27.13
2023-02-14T21:07:20.685Z,31.07
2023-02-14T21:09:50.668Z,25.90
2023-02-14T21:12:20.710Z,25.43
2023-02-14T21:14:53.508Z,24.60
2023-02-14T21:17:23.480Z,25.33
2023-02-14T21:19:53.420Z,26.90
2023-02-14T21:22:23.422Z,28.93
2023-02-14T21:24:53.548Z,27.00
2023-02-14T21:27:23.549Z,26.30
2023-02-14T21:29:56.173Z,22.83
2023-02-14T21:32:28.446Z,23.03
2023-02-14T21:34:58.702Z,22.17
2023-02-14T21:37:28.685Z,25.97
2023-02-14T21:39:58.602Z,23.70
2023-02-14T21:42:28.539Z,22.60
2023-02-14T21:45:13.615Z,20.63
2023-02-14T21:48:03.662Z,19.17
2023-02-14T21:50:31.047Z,20.17
2023-02-14T21:53:01.458Z,18.97
2023-02-14T21:55:31.469Z,19.93
2023-02-14T21:58:01.534Z,18.90
2023-02-14T22:00:34.238Z,19.73
2023-02-14T22:03:05.192Z,21.93
2023-02-14T22:05:35.206Z,24.20
2023-02-14T22:08:05.207Z,21.00
2023-02-14T22:10:35.223Z,18.47
2023-02-14T22:13:05.159Z,21.70
2023-02-14T22:15:40.161Z,19.37
2023-02-14T22:18:10.266Z,20.63
2023-02-14T22:20:40.330Z,23.00
2023-02-14T22:23:11.481Z,22.77
2023-02-14T22:25:41.417Z,19.20
2023-02-14T22:28:12.065Z,19.40
2023-02-14T22:30:44.748Z,18.47
2023-02-14T22:33:14.723Z,17.97
2023-02-14T22:35:44.830Z,18.47
2023-02-14T22:38:14.899Z,21.53
2023-02-14T22:40:44.935Z,18.07
2023-02-14T22:43:15.032Z,19.57
2023-02-14T22:45:47.919Z,22.13
2023-02-14T22:48:18.780Z,21.33
2023-02-14T22:50:48.799Z,19.40
2023-02-14T22:53:18.838Z,22.30
2023-02-14T22:55:48.824Z,19.77
2023-02-14T22:58:18.881Z,20.67
2023-02-14T23:00:51.476Z,19.67
2023-02-14T23:03:21.440Z,19.47
2023-02-14T23:05:51.449Z,19.90
2023-02-14T23:08:21.589Z,20.87
2023-02-14T23:10:51.617Z,20.53
2023-02-14T23:13:34.240Z,22.87
2023-02-14T23:16:19.577Z,22.03
2023-02-14T23:19:02.177Z,21.70
2023-02-14T23:21:44.675Z,20.07
2023-02-14T23:24:14.659Z,22.80
2023-02-14T23:26:44.725Z,23.03
2023-02-14T23:29:14.830Z,19.40
2023-02-14T23:31:47.689Z,18.80
2023-02-14T23:34:17.925Z,20.97
2023-02-14T23:36:48.604Z,21.90
2023-02-14T23:39:18.793Z,22.87
2023-02-14T23:41:51.796Z,20.60
2023-02-14T23:44:24.765Z,23.20
2023-02-14T23:47:00.508Z,23.40
2023-02-14T23:49:31.099Z,21.30
2023-02-14T23:52:01.602Z,18.20
2023-02-14T23:54:31.868Z,18.57
2023-02-14T23:57:02.044Z,21.90
2023-02-14T23:59:32.364Z,19.97
